KBKT/BKT METAR and TAF weather

Enter ICAO airport designator
Station Type Date Time Source
KBKT METAR 2021/09/23 18:15 UTC NOAA

KBKT 231815Z AUTO 28012G19KT 10SM CLR 24/14 A2989 RMK AO1 T02380135


Station Type Date Time Source
KBKT Decoded METAR 2021/09/23 18:15 UTC NOAA

Ft. Pickett / Blackstone, VA, United States (KBKT) 37-05N 077-57W
Sep 23, 2021 - 02:15 PM EDT / 2021.09.23 1815 UTC
Wind: from the W (280 degrees) at 14 MPH (12 KT) gusting to 22 MPH (19 KT):0
Visibility: 10 mile(s):0
Sky conditions: clear
Temperature: 74.8 F (23.8 C)
Dew Point: 56.3 F (13.5 C)
Relative Humidity: 52%
Pressure (altimeter): 29.89 in. Hg (1012 hPa)
ob: KBKT 231815Z AUTO 28012G19KT 10SM CLR 24/14 A2989 RMK AO1 T02380135
cycle: 18

Station Type Date Time Source
KBKT TAF UTC NOAA

Error!

Example: see airport list